Time;durP1;ratioP1;P1;durP2;ratioP2;P2;SDS_P1;SDS_P2;PMS_P1;PMS_P2;Temp;Humidity;BMP_temperature;BMP_pressure;BME280_temperature;BME280_humidity;BME280_pressure;Samples;Min_cycle;Max_cycle;Signal;HPM_P1;HPM_P2
2024/01/29 00:01:55;;;;;;;10.02;5.28;;;;;;;;;;5066734;28;20059;-84
2024/01/29 00:04:22;;;;;;;12.57;5.30;;;;;;;;;;5058301;28;20492;-84
2024/01/29 00:06:49;;;;;;;9.20;5.45;;;;;;;;;;5054299;28;20067;-84
2024/01/29 00:09:17;;;;;;;10.00;5.30;;;;;;;;;;5057276;28;20055;-83
2024/01/29 00:11:44;;;;;;;9.48;6.10;;;;;;;;;;5060615;28;20049;-84
2024/01/29 00:14:11;;;;;;;8.45;5.03;;;;;;;;;;5070395;28;20052;-84
2024/01/29 00:16:38;;;;;;;10.07;6.10;;;;;;;;;;5054214;28;20067;-83
2024/01/29 00:19:05;;;;;;;9.18;5.03;;;;;;;;;;5056116;28;20045;-85
2024/01/29 00:21:31;;;;;;;11.25;5.85;;;;;;;;;;5039139;28;20136;-85
2024/01/29 00:24:00;;;;;;;9.07;5.45;;;;;;;;;;5051539;28;20078;-85
2024/01/29 00:26:27;;;;;;;9.90;5.82;;;;;;;;;;5042356;28;20057;-86
2024/01/29 00:28:54;;;;;;;8.50;5.38;;;;;;;;;;5056282;28;20044;-83
2024/01/29 00:31:22;;;;;;;10.65;4.80;;;;;;;;;;5068780;28;20041;-86
2024/01/29 00:33:50;;;;;;;10.05;5.95;;;;;;;;;;5063665;28;20136;-86
2024/01/29 00:36:17;;;;;;;13.02;5.85;;;;;;;;;;5043361;28;20040;-86
2024/01/29 00:38:44;;;;;;;9.68;5.40;;;;;;;;;;5058828;28;20061;-89
2024/01/29 00:41:11;;;;;;;10.70;5.45;;;;;;;;;;5069235;28;20049;-80
2024/01/29 00:43:37;;;;;;;7.15;5.03;;;;;;;;;;5049779;28;20053;-84
2024/01/29 00:46:04;;;;;;;8.57;5.25;;;;;;;;;;5070519;28;20057;-85
2024/01/29 00:48:31;;;;;;;7.43;4.53;;;;;;;;;;5043169;28;20120;-87
2024/01/29 00:50:57;;;;;;;6.20;4.80;;;;;;;;;;5029374;28;20415;-87
2024/01/29 00:53:24;;;;;;;9.93;6.90;;;;;;;;;;5052818;28;20080;-86
2024/01/29 00:55:51;;;;;;;9.75;5.45;;;;;;;;;;5057942;28;20590;-85
2024/01/29 00:58:18;;;;;;;7.10;5.53;;;;;;;;;;5042441;28;20048;-85
2024/01/29 01:00:44;;;;;;;8.50;5.40;;;;;;;;;;5045463;28;20136;-86
2024/01/29 01:03:11;;;;;;;9.90;4.95;;;;;;;;;;5072941;28;20048;-85
2024/01/29 01:05:38;;;;;;;10.45;5.38;;;;;;;;;;5059044;28;20056;-85
2024/01/29 01:08:04;;;;;;;8.98;5.85;;;;;;;;;;5042700;28;20052;-86
2024/01/29 01:10:31;;;;;;;8.13;6.18;;;;;;;;;;5059362;28;20470;-85
2024/01/29 01:12:59;;;;;;;7.32;4.82;;;;;;;;;;5059770;28;20098;-85
2024/01/29 01:15:26;;;;;;;6.68;5.10;;;;;;;;;;5041102;28;20557;-85
2024/01/29 01:17:52;;;;;;;7.82;5.05;;;;;;;;;;5043419;28;20061;-85
2024/01/29 01:20:19;;;;;;;7.35;4.90;;;;;;;;;;5058154;28;20092;-85
2024/01/29 01:22:46;;;;;;;6.70;4.88;;;;;;;;;;5059571;28;20425;-84
2024/01/29 01:25:12;;;;;;;5.78;4.43;;;;;;;;;;5058420;28;20053;-85
2024/01/29 01:27:39;;;;;;;6.28;4.60;;;;;;;;;;5058039;28;20079;-85
2024/01/29 01:30:06;;;;;;;7.22;4.85;;;;;;;;;;5058131;28;20049;-86
2024/01/29 01:32:33;;;;;;;7.85;4.80;;;;;;;;;;5049163;28;20098;-85
2024/01/29 01:34:59;;;;;;;8.13;5.07;;;;;;;;;;5058581;28;20049;-84
2024/01/29 01:37:26;;;;;;;8.88;5.55;;;;;;;;;;5057434;28;20443;-85
2024/01/29 01:39:53;;;;;;;7.32;5.13;;;;;;;;;;5057429;28;20089;-85
2024/01/29 01:42:20;;;;;;;6.22;4.65;;;;;;;;;;5032638;28;20057;-84
2024/01/29 01:44:47;;;;;;;6.75;5.15;;;;;;;;;;5057703;28;20143;-84
2024/01/29 01:47:14;;;;;;;8.20;5.53;;;;;;;;;;5046479;28;20061;-85
2024/01/29 01:49:40;;;;;;;10.07;5.50;;;;;;;;;;5071771;28;20033;-83
2024/01/29 01:52:07;;;;;;;7.95;4.88;;;;;;;;;;5035560;28;20049;-84
2024/01/29 01:54:34;;;;;;;8.50;5.10;;;;;;;;;;5041051;28;20055;-85
2024/01/29 01:57:00;;;;;;;7.80;5.60;;;;;;;;;;5057983;28;20108;-84
2024/01/29 01:59:27;;;;;;;7.68;5.20;;;;;;;;;;5041494;28;20053;-84
2024/01/29 02:01:54;;;;;;;6.43;4.93;;;;;;;;;;5040400;28;20087;-84
2024/01/29 02:04:21;;;;;;;9.43;5.53;;;;;;;;;;5040984;28;20078;-84
2024/01/29 02:06:48;;;;;;;7.80;5.03;;;;;;;;;;5058080;28;20060;-84
2024/01/29 02:09:15;;;;;;;7.85;5.43;;;;;;;;;;5041113;28;20124;-84
2024/01/29 02:11:41;;;;;;;7.70;4.93;;;;;;;;;;5050709;28;20110;-85
2024/01/29 02:14:08;;;;;;;7.75;5.32;;;;;;;;;;5059164;28;20045;-84
2024/01/29 02:16:34;;;;;;;9.52;5.68;;;;;;;;;;5061598;28;20084;-85
2024/01/29 02:19:03;;;;;;;8.10;5.05;;;;;;;;;;5045301;28;20079;-85
2024/01/29 02:21:30;;;;;;;9.02;5.07;;;;;;;;;;5045069;28;20091;-85
2024/01/29 02:23:56;;;;;;;6.82;5.28;;;;;;;;;;5061449;28;20079;-85
2024/01/29 02:26:23;;;;;;;7.57;5.03;;;;;;;;;;5050457;28;20091;-84
2024/01/29 02:28:50;;;;;;;8.63;5.07;;;;;;;;;;5040827;28;20141;-83
2024/01/29 02:31:16;;;;;;;8.25;5.20;;;;;;;;;;5049687;28;20132;-83
2024/01/29 02:33:43;;;;;;;8.38;5.53;;;;;;;;;;5056933;28;20422;-83
2024/01/29 02:36:10;;;;;;;8.43;5.25;;;;;;;;;;5040696;28;20049;-86
2024/01/29 02:38:37;;;;;;;9.27;5.40;;;;;;;;;;5056917;28;20775;-85
2024/01/29 02:41:03;;;;;;;7.50;5.55;;;;;;;;;;5056158;28;20096;-85
2024/01/29 02:43:30;;;;;;;8.38;5.95;;;;;;;;;;5039704;28;20107;-85
2024/01/29 02:45:57;;;;;;;7.57;5.30;;;;;;;;;;5040178;28;20107;-85
2024/01/29 02:48:23;;;;;;;8.68;5.35;;;;;;;;;;5057251;28;20087;-84
2024/01/29 02:50:50;;;;;;;8.88;5.53;;;;;;;;;;5039681;28;20071;-84
2024/01/29 02:53:17;;;;;;;9.60;5.45;;;;;;;;;;5056551;28;20053;-84
2024/01/29 02:55:43;;;;;;;9.32;5.68;;;;;;;;;;5040129;28;20057;-86
2024/01/29 02:58:10;;;;;;;10.35;5.15;;;;;;;;;;5058086;28;20060;-83
2024/01/29 03:00:37;;;;;;;8.82;5.68;;;;;;;;;;5041848;28;20048;-82
2024/01/29 03:03:04;;;;;;;11.57;6.20;;;;;;;;;;5043071;28;20049;-83
2024/01/29 03:05:30;;;;;;;10.18;5.75;;;;;;;;;;5044609;28;20049;-83
2024/01/29 03:07:57;;;;;;;8.90;5.28;;;;;;;;;;5046198;28;20045;-83
2024/01/29 03:10:23;;;;;;;7.50;5.40;;;;;;;;;;5060727;28;20045;-83
2024/01/29 03:12:52;;;;;;;10.82;5.63;;;;;;;;;;5047186;28;20111;-87
2024/01/29 03:15:19;;;;;;;9.65;5.55;;;;;;;;;;5034594;28;20052;-87
2024/01/29 03:17:46;;;;;;;6.93;4.88;;;;;;;;;;5054617;28;20049;-85
2024/01/29 03:20:12;;;;;;;8.18;5.57;;;;;;;;;;5040048;28;20076;-85
2024/01/29 03:22:39;;;;;;;7.70;5.15;;;;;;;;;;5044774;28;20049;-85
2024/01/29 03:25:06;;;;;;;8.65;5.95;;;;;;;;;;5036574;28;20055;-84
2024/01/29 03:27:33;;;;;;;9.23;5.75;;;;;;;;;;5060552;28;20060;-85
2024/01/29 03:30:00;;;;;;;6.93;5.10;;;;;;;;;;5055880;28;20055;-85
2024/01/29 03:32:26;;;;;;;7.72;5.57;;;;;;;;;;5061192;28;20044;-84
2024/01/29 03:34:53;;;;;;;9.07;5.65;;;;;;;;;;5057916;28;20117;-84
2024/01/29 03:37:19;;;;;;;9.40;5.75;;;;;;;;;;5042490;28;20499;-84
2024/01/29 03:39:46;;;;;;;6.70;5.40;;;;;;;;;;5058950;28;20063;-85
2024/01/29 03:42:13;;;;;;;9.85;5.57;;;;;;;;;;5044616;28;20058;-85
2024/01/29 03:44:39;;;;;;;6.25;4.57;;;;;;;;;;5058280;28;20107;-84
2024/01/29 03:47:06;;;;;;;8.38;5.63;;;;;;;;;;5059182;28;20083;-85
2024/01/29 03:49:32;;;;;;;7.70;5.45;;;;;;;;;;5059595;28;20045;-84
2024/01/29 03:51:59;;;;;;;8.43;6.03;;;;;;;;;;5053604;28;20091;-86
2024/01/29 03:54:26;;;;;;;8.10;5.07;;;;;;;;;;5048692;28;20049;-86
2024/01/29 03:56:53;;;;;;;9.23;5.35;;;;;;;;;;5050490;28;20126;-86
2024/01/29 03:59:19;;;;;;;7.97;5.72;;;;;;;;;;5050535;28;20140;-87
2024/01/29 04:01:46;;;;;;;8.30;5.63;;;;;;;;;;5033682;28;20498;-86
2024/01/29 04:04:12;;;;;;;10.27;7.10;;;;;;;;;;5052091;28;20136;-85
2024/01/29 04:06:39;;;;;;;9.73;6.47;;;;;;;;;;5055857;28;20057;-85
2024/01/29 04:09:09;;;;;;;12.82;6.25;;;;;;;;;;5053412;28;20132;-82
2024/01/29 04:11:36;;;;;;;8.02;5.80;;;;;;;;;;5047383;28;20041;-82
2024/01/29 04:14:03;;;;;;;9.30;5.65;;;;;;;;;;5040733;28;20132;-84
2024/01/29 04:16:30;;;;;;;9.18;5.90;;;;;;;;;;5040558;28;20049;-83
2024/01/29 04:18:57;;;;;;;10.73;5.88;;;;;;;;;;5040437;28;20053;-85
2024/01/29 04:21:24;;;;;;;9.77;6.07;;;;;;;;;;5040908;28;20087;-86
2024/01/29 04:23:52;;;;;;;7.70;5.75;;;;;;;;;;5047596;28;20053;-85
2024/01/29 04:26:19;;;;;;;9.52;5.93;;;;;;;;;;5072097;28;20116;-86
2024/01/29 04:28:46;;;;;;;9.63;5.35;;;;;;;;;;5062474;28;20057;-86
2024/01/29 04:31:13;;;;;;;8.93;5.28;;;;;;;;;;5060998;28;20073;-85
2024/01/29 04:33:42;;;;;;;8.68;5.85;;;;;;;;;;5043969;28;20048;-85
2024/01/29 04:36:11;;;;;;;7.53;5.05;;;;;;;;;;5054461;28;20092;-79
2024/01/29 04:38:38;;;;;;;6.97;5.25;;;;;;;;;;5088327;28;20045;-78
2024/01/29 04:41:04;;;;;;;9.60;5.90;;;;;;;;;;5074659;28;20053;-80
2024/01/29 04:43:31;;;;;;;9.90;5.25;;;;;;;;;;5059797;28;20507;-80
2024/01/29 04:45:57;;;;;;;6.95;5.50;;;;;;;;;;5059610;28;20274;-81
2024/01/29 04:48:24;;;;;;;8.65;5.63;;;;;;;;;;5058185;28;20057;-80
2024/01/29 04:50:51;;;;;;;9.18;6.50;;;;;;;;;;5057373;28;20057;-80
2024/01/29 04:53:17;;;;;;;9.02;5.90;;;;;;;;;;5058706;28;20052;-81
2024/01/29 04:55:44;;;;;;;7.50;5.93;;;;;;;;;;5042497;28;20053;-85
2024/01/29 04:58:11;;;;;;;8.60;5.35;;;;;;;;;;5062096;28;20040;-81
2024/01/29 05:00:38;;;;;;;9.75;5.63;;;;;;;;;;5061392;28;20075;-83
2024/01/29 05:03:05;;;;;;;9.73;5.78;;;;;;;;;;5066676;28;20406;-83
2024/01/29 05:05:32;;;;;;;10.35;6.55;;;;;;;;;;5039735;28;20491;-83
2024/01/29 05:07:58;;;;;;;7.53;5.20;;;;;;;;;;5057947;28;20055;-82
2024/01/29 05:10:25;;;;;;;7.28;5.45;;;;;;;;;;5055393;28;20072;-83
2024/01/29 05:12:51;;;;;;;9.68;5.80;;;;;;;;;;5059978;28;20049;-83
2024/01/29 05:15:18;;;;;;;10.35;5.28;;;;;;;;;;5053080;28;20071;-82
2024/01/29 05:17:45;;;;;;;8.48;6.32;;;;;;;;;;5063406;28;20052;-80
2024/01/29 05:20:11;;;;;;;9.63;6.07;;;;;;;;;;5059999;28;20048;-81
2024/01/29 05:22:38;;;;;;;10.13;5.90;;;;;;;;;;5064111;28;20049;-80
2024/01/29 05:25:05;;;;;;;8.13;5.53;;;;;;;;;;5040628;28;20084;-83
2024/01/29 05:27:32;;;;;;;11.45;7.07;;;;;;;;;;5042861;28;20080;-82
2024/01/29 05:29:58;;;;;;;9.90;6.30;;;;;;;;;;5056574;28;20109;-82
2024/01/29 05:32:25;;;;;;;8.10;6.28;;;;;;;;;;5055771;28;20087;-83
2024/01/29 05:34:52;;;;;;;8.40;6.13;;;;;;;;;;5055048;28;20049;-82
2024/01/29 05:37:18;;;;;;;7.50;5.47;;;;;;;;;;5036710;28;20045;-82
2024/01/29 05:39:45;;;;;;;7.68;5.35;;;;;;;;;;5039820;28;20088;-82
2024/01/29 05:42:12;;;;;;;8.13;5.82;;;;;;;;;;5039648;28;20064;-82
2024/01/29 05:44:39;;;;;;;9.05;6.00;;;;;;;;;;5056017;28;20068;-81
2024/01/29 05:47:05;;;;;;;11.82;6.70;;;;;;;;;;5060152;28;20050;-82
2024/01/29 05:49:32;;;;;;;8.85;6.00;;;;;;;;;;5063662;28;20040;-84
2024/01/29 05:51:59;;;;;;;7.65;5.68;;;;;;;;;;5039489;28;20053;-82
2024/01/29 05:54:25;;;;;;;11.85;6.28;;;;;;;;;;5056162;28;20055;-84
2024/01/29 05:56:52;;;;;;;9.57;6.47;;;;;;;;;;5056762;28;20052;-82
2024/01/29 05:59:19;;;;;;;8.50;5.85;;;;;;;;;;5047427;28;20052;-86
2024/01/29 06:01:46;;;;;;;10.82;6.55;;;;;;;;;;5040327;28;20053;-82
2024/01/29 06:04:13;;;;;;;9.10;5.97;;;;;;;;;;5071307;28;20075;-83
2024/01/29 06:06:41;;;;;;;8.13;5.88;;;;;;;;;;5062134;28;20068;-83
2024/01/29 06:09:09;;;;;;;10.88;5.63;;;;;;;;;;5048663;28;20403;-83
2024/01/29 06:11:36;;;;;;;10.02;5.78;;;;;;;;;;5059415;28;20047;-83
2024/01/29 06:14:03;;;;;;;9.73;5.85;;;;;;;;;;5062224;28;20049;-83
2024/01/29 06:16:30;;;;;;;7.65;5.43;;;;;;;;;;5056433;28;20143;-83
2024/01/29 06:18:56;;;;;;;8.50;5.65;;;;;;;;;;5040321;28;20057;-83
2024/01/29 06:21:23;;;;;;;9.73;5.88;;;;;;;;;;5057003;28;20064;-82
2024/01/29 06:23:50;;;;;;;8.93;5.95;;;;;;;;;;5039836;28;20056;-83
2024/01/29 06:26:16;;;;;;;9.45;5.43;;;;;;;;;;5060611;28;20040;-83
2024/01/29 06:28:43;;;;;;;8.23;5.90;;;;;;;;;;5041911;28;20053;-83
2024/01/29 06:31:10;;;;;;;8.57;4.88;;;;;;;;;;5056159;28;20049;-83
2024/01/29 06:33:38;;;;;;;9.23;6.47;;;;;;;;;;5056725;28;20052;-83
2024/01/29 06:36:05;;;;;;;12.10;6.25;;;;;;;;;;5059485;28;20059;-83
2024/01/29 06:38:32;;;;;;;9.50;5.63;;;;;;;;;;5042109;28;20060;-83
2024/01/29 06:40:59;;;;;;;10.18;7.03;;;;;;;;;;5038867;28;20067;-83
2024/01/29 06:43:26;;;;;;;10.07;6.05;;;;;;;;;;5039571;28;20079;-83
2024/01/29 06:45:55;;;;;;;8.15;6.88;;;;;;;;;;5057350;28;20510;-83
2024/01/29 06:48:21;;;;;;;9.07;6.18;;;;;;;;;;5040099;28;20053;-83
2024/01/29 06:50:48;;;;;;;11.82;6.22;;;;;;;;;;5055939;28;20132;-83
2024/01/29 06:53:15;;;;;;;9.98;6.55;;;;;;;;;;5056468;28;20053;-83
2024/01/29 06:55:41;;;;;;;9.23;5.80;;;;;;;;;;5040992;28;20139;-83
2024/01/29 06:58:08;;;;;;;9.57;6.53;;;;;;;;;;5045734;28;20053;-82
2024/01/29 07:00:34;;;;;;;7.60;5.82;;;;;;;;;;5065529;28;20060;-82
2024/01/29 07:03:01;;;;;;;11.77;6.68;;;;;;;;;;5044968;28;20053;-83
2024/01/29 07:05:28;;;;;;;8.57;6.13;;;;;;;;;;5039938;28;20063;-83
2024/01/29 07:07:55;;;;;;;8.00;5.82;;;;;;;;;;5059579;28;20139;-83
2024/01/29 07:10:21;;;;;;;9.27;6.07;;;;;;;;;;5060672;28;20053;-83
2024/01/29 07:12:48;;;;;;;9.85;5.63;;;;;;;;;;5055948;28;20650;-83
2024/01/29 07:15:15;;;;;;;9.07;6.28;;;;;;;;;;5039503;28;20056;-83
2024/01/29 07:17:42;;;;;;;9.10;5.95;;;;;;;;;;5057358;28;20088;-83
2024/01/29 07:20:09;;;;;;;10.07;6.28;;;;;;;;;;5056259;28;20506;-83
2024/01/29 07:22:38;;;;;;;10.10;6.72;;;;;;;;;;5039865;28;20052;-83
2024/01/29 07:25:08;;;;;;;10.55;7.28;;;;;;;;;;5055839;28;20057;-83
2024/01/29 07:27:34;;;;;;;9.40;6.65;;;;;;;;;;5039699;28;20119;-83
2024/01/29 07:30:01;;;;;;;10.02;6.47;;;;;;;;;;5056231;28;20071;-83
2024/01/29 07:32:31;;;;;;;10.90;6.18;;;;;;;;;;5055841;28;20045;-83
2024/01/29 07:35:00;;;;;;;14.00;6.00;;;;;;;;;;5040071;28;20402;-83
2024/01/29 07:37:27;;;;;;;8.98;6.32;;;;;;;;;;5039187;28;20049;-84
2024/01/29 07:39:54;;;;;;;10.98;6.53;;;;;;;;;;5055872;28;20067;-83
2024/01/29 07:42:21;;;;;;;11.70;6.32;;;;;;;;;;5055289;28;20056;-83
2024/01/29 07:44:48;;;;;;;10.00;5.93;;;;;;;;;;5039118;28;20049;-83
2024/01/29 07:47:15;;;;;;;9.73;6.22;;;;;;;;;;5055854;28;20060;-83
2024/01/29 07:49:45;;;;;;;10.35;6.25;;;;;;;;;;5040063;28;20049;-83
2024/01/29 07:52:12;;;;;;;8.00;5.75;;;;;;;;;;5055672;28;20117;-83
2024/01/29 07:54:38;;;;;;;9.20;6.43;;;;;;;;;;5038874;28;20111;-83
2024/01/29 07:57:05;;;;;;;10.05;6.50;;;;;;;;;;5047162;28;20060;-83
2024/01/29 07:59:32;;;;;;;11.30;6.32;;;;;;;;;;5048371;28;20052;-83
2024/01/29 08:01:58;;;;;;;9.60;5.40;;;;;;;;;;5058305;28;20056;-83
2024/01/29 08:04:26;;;;;;;9.88;6.05;;;;;;;;;;5059773;28;20057;-83
2024/01/29 08:06:53;;;;;;;10.73;5.75;;;;;;;;;;5060049;28;20084;-83
2024/01/29 08:09:20;;;;;;;7.75;5.22;;;;;;;;;;5059098;28;20052;-83
2024/01/29 08:11:47;;;;;;;10.55;6.25;;;;;;;;;;5042870;28;20067;-83
2024/01/29 08:14:13;;;;;;;10.65;6.45;;;;;;;;;;5059402;28;20049;-83
2024/01/29 08:16:40;;;;;;;9.65;6.80;;;;;;;;;;5043210;28;20533;-83
2024/01/29 08:19:07;;;;;;;12.10;6.57;;;;;;;;;;5058911;28;20109;-83
2024/01/29 08:21:33;;;;;;;12.85;7.28;;;;;;;;;;5052139;28;20048;-83
2024/01/29 08:24:02;;;;;;;10.40;6.55;;;;;;;;;;5059302;28;20056;-83
2024/01/29 08:26:29;;;;;;;9.88;6.60;;;;;;;;;;5058766;28;20529;-83
2024/01/29 08:28:55;;;;;;;9.95;6.63;;;;;;;;;;5059307;28;20134;-83
2024/01/29 08:31:23;;;;;;;11.27;6.15;;;;;;;;;;5051438;28;20423;-83
2024/01/29 08:33:50;;;;;;;8.65;6.20;;;;;;;;;;5053005;28;20053;-83
2024/01/29 08:36:20;;;;;;;7.88;6.03;;;;;;;;;;5059087;28;20055;-83
2024/01/29 08:38:47;;;;;;;11.35;6.65;;;;;;;;;;5042791;28;20075;-83
2024/01/29 08:41:14;;;;;;;12.68;5.82;;;;;;;;;;5060128;28;20090;-83
2024/01/29 08:43:40;;;;;;;9.63;6.47;;;;;;;;;;5042495;28;20068;-83
2024/01/29 08:46:07;;;;;;;8.30;6.05;;;;;;;;;;5041525;28;20049;-83
2024/01/29 08:48:34;;;;;;;12.45;7.75;;;;;;;;;;5041804;28;20067;-83
2024/01/29 08:51:00;;;;;;;11.85;6.93;;;;;;;;;;5041156;28;20102;-83
2024/01/29 08:53:27;;;;;;;14.70;6.90;;;;;;;;;;5058646;28;20049;-83
2024/01/29 08:55:54;;;;;;;10.32;6.30;;;;;;;;;;5058817;28;20051;-83
2024/01/29 08:58:21;;;;;;;10.20;5.80;;;;;;;;;;5058719;28;20418;-83
2024/01/29 09:00:53;;;;;;;9.05;6.13;;;;;;;;;;5060567;28;20052;-83
2024/01/29 09:03:21;;;;;;;10.65;6.55;;;;;;;;;;5050798;28;20113;-83
2024/01/29 09:05:48;;;;;;;10.05;6.68;;;;;;;;;;5050561;28;20053;-83
2024/01/29 09:08:15;;;;;;;9.82;6.72;;;;;;;;;;5059854;28;20198;-83
2024/01/29 09:10:45;;;;;;;9.43;6.38;;;;;;;;;;5059772;28;20112;-82
2024/01/29 09:13:14;;;;;;;11.65;7.00;;;;;;;;;;5073061;28;20067;-83
2024/01/29 09:15:41;;;;;;;11.15;6.88;;;;;;;;;;5085346;28;20052;-82
2024/01/29 09:18:08;;;;;;;8.65;6.50;;;;;;;;;;5077727;28;20029;-82
2024/01/29 09:20:34;;;;;;;9.38;6.35;;;;;;;;;;5057140;28;20080;-83
2024/01/29 09:23:01;;;;;;;10.45;6.55;;;;;;;;;;5072817;28;20064;-82
2024/01/29 09:25:28;;;;;;;10.77;6.40;;;;;;;;;;5061284;28;20060;-82
2024/01/29 09:27:54;;;;;;;9.93;6.68;;;;;;;;;;5080238;28;20033;-83
2024/01/29 09:30:21;;;;;;;8.68;6.70;;;;;;;;;;5063280;28;20036;-83
2024/01/29 09:32:48;;;;;;;9.88;6.25;;;;;;;;;;5063292;28;20049;-83
2024/01/29 09:35:14;;;;;;;8.52;5.68;;;;;;;;;;5062955;28;20097;-82
2024/01/29 09:37:41;;;;;;;7.28;5.50;;;;;;;;;;5061805;28;20113;-83
2024/01/29 09:40:12;;;;;;;10.32;6.25;;;;;;;;;;5069958;28;20067;-83
2024/01/29 09:42:40;;;;;;;8.63;5.88;;;;;;;;;;5067132;28;20041;-83
2024/01/29 09:45:10;;;;;;;11.20;5.68;;;;;;;;;;5078933;28;20028;-83
2024/01/29 09:47:37;;;;;;;9.82;5.72;;;;;;;;;;5070317;28;20071;-84
2024/01/29 09:50:08;;;;;;;8.68;5.07;;;;;;;;;;5047708;28;20175;-83
2024/01/29 09:52:37;;;;;;;8.25;5.53;;;;;;;;;;5035685;28;20119;-83
2024/01/29 09:55:05;;;;;;;9.68;5.93;;;;;;;;;;5052666;28;20060;-83
2024/01/29 09:57:32;;;;;;;8.30;5.70;;;;;;;;;;5036307;28;20049;-83
2024/01/29 09:59:59;;;;;;;11.57;6.28;;;;;;;;;;5052254;28;20056;-83
2024/01/29 10:02:25;;;;;;;9.13;5.85;;;;;;;;;;5053159;28;20062;-82
2024/01/29 10:04:52;;;;;;;8.27;6.03;;;;;;;;;;5054023;28;20051;-83
2024/01/29 10:07:19;;;;;;;8.52;6.28;;;;;;;;;;5057990;28;20053;-84
2024/01/29 10:09:45;;;;;;;8.77;6.00;;;;;;;;;;5054139;28;20549;-82
2024/01/29 10:12:22;;;;;;;8.93;5.47;;;;;;;;;;5035561;28;20053;-83
2024/01/29 10:14:49;;;;;;;7.32;5.20;;;;;;;;;;5055321;28;20051;-84
2024/01/29 10:17:16;;;;;;;14.30;6.20;;;;;;;;;;5056669;28;20194;-84
2024/01/29 10:19:44;;;;;;;11.05;6.85;;;;;;;;;;5054630;28;20552;-83
2024/01/29 10:22:14;;;;;;;10.13;6.18;;;;;;;;;;5052621;28;20060;-83
2024/01/29 10:24:40;;;;;;;8.70;5.93;;;;;;;;;;5052063;28;20489;-83
2024/01/29 10:27:08;;;;;;;8.85;5.40;;;;;;;;;;5037524;28;20080;-83
2024/01/29 10:29:47;;;;;;;7.35;4.88;;;;;;;;;;5036188;28;20057;-83
2024/01/29 10:32:14;;;;;;;9.18;5.93;;;;;;;;;;5037135;28;20068;-83
2024/01/29 10:34:41;;;;;;;11.40;6.38;;;;;;;;;;5064382;28;20106;-83
2024/01/29 10:37:08;;;;;;;8.73;6.25;;;;;;;;;;5056629;28;20128;-83
2024/01/29 10:39:35;;;;;;;13.50;5.82;;;;;;;;;;5040446;28;20488;-83
2024/01/29 10:42:12;;;;;;;9.02;5.45;;;;;;;;;;5041557;28;20085;-83
2024/01/29 10:44:41;;;;;;;7.90;4.78;;;;;;;;;;5039887;28;20112;-83
2024/01/29 10:47:18;;;;;;;9.52;5.22;;;;;;;;;;5040240;28;20053;-84
2024/01/29 10:49:44;;;;;;;5.68;4.22;;;;;;;;;;5039262;28;20568;-83
2024/01/29 10:52:12;;;;;;;7.68;5.60;;;;;;;;;;5056051;28;20053;-83
2024/01/29 10:54:39;;;;;;;6.68;4.60;;;;;;;;;;5039301;28;20087;-84
2024/01/29 10:57:09;;;;;;;5.50;4.28;;;;;;;;;;5053881;28;20664;-84
2024/01/29 10:59:41;;;;;;;8.23;4.70;;;;;;;;;;5038801;28;20507;-83
2024/01/29 11:02:09;;;;;;;5.50;4.17;;;;;;;;;;5056677;28;20498;-83
2024/01/29 11:04:36;;;;;;;6.82;4.70;;;;;;;;;;5055774;28;20060;-83
2024/01/29 11:07:06;;;;;;;6.45;4.57;;;;;;;;;;5039523;28;20045;-83
2024/01/29 11:09:33;;;;;;;8.32;4.90;;;;;;;;;;5038689;28;20514;-83
2024/01/29 11:11:59;;;;;;;6.13;4.00;;;;;;;;;;5038534;28;20083;-83
2024/01/29 11:14:26;;;;;;;6.65;4.28;;;;;;;;;;5038300;28;20081;-83
2024/01/29 11:16:53;;;;;;;9.20;5.78;;;;;;;;;;5035259;28;20140;-84
2024/01/29 11:19:24;;;;;;;8.05;5.43;;;;;;;;;;5052200;28;20079;-83
2024/01/29 11:21:51;;;;;;;6.25;5.00;;;;;;;;;;5037637;28;20053;-83
2024/01/29 11:24:21;;;;;;;5.95;4.82;;;;;;;;;;5036993;28;20053;-83
2024/01/29 11:26:47;;;;;;;6.55;4.63;;;;;;;;;;5053789;28;20060;-83
2024/01/29 11:29:19;;;;;;;6.70;4.60;;;;;;;;;;5037435;28;20053;-83
2024/01/29 11:31:45;;;;;;;7.97;4.32;;;;;;;;;;5055077;28;20119;-83
2024/01/29 11:34:14;;;;;;;6.68;4.18;;;;;;;;;;5038389;28;20495;-83
2024/01/29 11:36:40;;;;;;;7.63;4.18;;;;;;;;;;5057911;28;20044;-83
2024/01/29 11:39:16;;;;;;;4.95;3.97;;;;;;;;;;5058650;28;20072;-84
2024/01/29 11:41:46;;;;;;;4.47;3.95;;;;;;;;;;5043340;28;20498;-83
2024/01/29 11:44:14;;;;;;;6.70;3.88;;;;;;;;;;5042576;28;20458;-83
2024/01/29 11:46:42;;;;;;;6.43;3.88;;;;;;;;;;5041382;28;20052;-84
2024/01/29 11:49:09;;;;;;;5.85;3.85;;;;;;;;;;5042656;28;20166;-83
2024/01/29 11:51:39;;;;;;;5.28;3.97;;;;;;;;;;5059511;28;20049;-83
2024/01/29 11:54:05;;;;;;;7.63;4.18;;;;;;;;;;5058264;28;20048;-84
2024/01/29 11:56:32;;;;;;;7.25;3.72;;;;;;;;;;5058781;28;20155;-83
2024/01/29 11:59:00;;;;;;;5.25;3.70;;;;;;;;;;5042587;28;20576;-83
2024/01/29 12:01:26;;;;;;;5.10;3.70;;;;;;;;;;5041978;28;20091;-83
2024/01/29 12:03:54;;;;;;;5.22;3.17;;;;;;;;;;5058244;28;20053;-83
2024/01/29 12:06:20;;;;;;;4.70;3.00;;;;;;;;;;5041426;28;20515;-83
2024/01/29 12:08:47;;;;;;;5.07;3.10;;;;;;;;;;5041454;28;20488;-83
2024/01/29 12:11:15;;;;;;;7.57;3.65;;;;;;;;;;5041853;28;20057;-83
2024/01/29 12:13:42;;;;;;;5.13;3.33;;;;;;;;;;5041680;28;20084;-83
2024/01/29 12:16:09;;;;;;;4.32;3.15;;;;;;;;;;5041512;28;20446;-83
2024/01/29 12:18:38;;;;;;;3.78;2.85;;;;;;;;;;5041738;28;20052;-83
2024/01/29 12:21:05;;;;;;;5.13;3.08;;;;;;;;;;5041921;28;20399;-84
2024/01/29 12:23:32;;;;;;;4.75;3.33;;;;;;;;;;5042119;28;20056;-83
2024/01/29 12:25:59;;;;;;;3.97;3.38;;;;;;;;;;5041428;28;20102;-83
2024/01/29 12:28:26;;;;;;;3.55;2.92;;;;;;;;;;5042017;28;20045;-84
2024/01/29 12:30:55;;;;;;;5.60;2.78;;;;;;;;;;5058469;28;20095;-84
2024/01/29 12:33:28;;;;;;;4.22;2.78;;;;;;;;;;5042254;28;20053;-83
2024/01/29 12:35:57;;;;;;;5.65;2.90;;;;;;;;;;5043038;28;20053;-83
2024/01/29 12:38:24;;;;;;;5.10;2.88;;;;;;;;;;5058457;28;20052;-83
2024/01/29 12:40:55;;;;;;;3.92;2.90;;;;;;;;;;5041754;28;20049;-83
2024/01/29 12:43:26;;;;;;;4.65;2.70;;;;;;;;;;5058897;28;20074;-84
2024/01/29 12:46:05;;;;;;;4.15;2.97;;;;;;;;;;5041626;28;20431;-84
2024/01/29 12:48:32;;;;;;;7.32;3.72;;;;;;;;;;5058223;28;20080;-83
2024/01/29 12:50:59;;;;;;;4.10;2.78;;;;;;;;;;5057551;28;20570;-83
2024/01/29 12:53:26;;;;;;;3.50;2.85;;;;;;;;;;5057470;28;20056;-83
2024/01/29 12:55:52;;;;;;;6.53;3.08;;;;;;;;;;5041642;28;20048;-83
2024/01/29 12:58:19;;;;;;;6.60;3.40;;;;;;;;;;5058464;28;20114;-83
2024/01/29 13:00:47;;;;;;;4.30;2.95;;;;;;;;;;5041796;28;20113;-84
2024/01/29 13:03:14;;;;;;;3.10;2.65;;;;;;;;;;5042556;28;20060;-83
2024/01/29 13:05:41;;;;;;;5.25;2.95;;;;;;;;;;5041100;28;20052;-83
2024/01/29 13:08:08;;;;;;;4.88;2.60;;;;;;;;;;5058137;28;20053;-83
2024/01/29 13:10:34;;;;;;;5.75;2.88;;;;;;;;;;5058409;28;20482;-83
2024/01/29 13:13:06;;;;;;;4.43;2.60;;;;;;;;;;5041148;28;20422;-83
2024/01/29 13:15:33;;;;;;;5.95;2.47;;;;;;;;;;5057649;28;20128;-83
2024/01/29 13:18:00;;;;;;;4.80;2.90;;;;;;;;;;5058532;28;20572;-83
2024/01/29 13:20:27;;;;;;;3.08;2.55;;;;;;;;;;5041415;28;20049;-83
2024/01/29 13:22:54;;;;;;;3.80;2.70;;;;;;;;;;5058173;28;20063;-83
2024/01/29 13:25:20;;;;;;;5.85;3.38;;;;;;;;;;5049848;28;20053;-84
2024/01/29 13:27:48;;;;;;;2.90;2.33;;;;;;;;;;5057648;28;20135;-83
2024/01/29 13:30:14;;;;;;;7.55;2.25;;;;;;;;;;5057934;28;20061;-84
2024/01/29 13:32:41;;;;;;;3.30;2.65;;;;;;;;;;5057646;28;20056;-83
2024/01/29 13:35:08;;;;;;;4.75;2.17;;;;;;;;;;5042544;28;20053;-83
2024/01/29 13:37:34;;;;;;;2.85;2.10;;;;;;;;;;5049973;28;20049;-83
2024/01/29 13:40:02;;;;;;;5.53;2.22;;;;;;;;;;5041389;28;20049;-83
2024/01/29 13:42:29;;;;;;;2.85;1.77;;;;;;;;;;5058239;28;20057;-84
2024/01/29 13:44:57;;;;;;;5.45;2.20;;;;;;;;;;5041695;28;20061;-84
2024/01/29 13:47:28;;;;;;;2.97;2.03;;;;;;;;;;5049601;28;20137;-83
2024/01/29 13:49:55;;;;;;;3.65;2.28;;;;;;;;;;5057673;28;20053;-84
2024/01/29 13:52:23;;;;;;;2.45;1.88;;;;;;;;;;5040929;28;20234;-83
2024/01/29 13:54:50;;;;;;;2.33;1.70;;;;;;;;;;5041045;28;20045;-83
2024/01/29 13:57:17;;;;;;;3.45;1.85;;;;;;;;;;5042124;28;20103;-83
2024/01/29 13:59:44;;;;;;;2.60;1.92;;;;;;;;;;5041082;28;20056;-84
2024/01/29 14:02:10;;;;;;;3.38;2.15;;;;;;;;;;5040562;28;20484;-84
2024/01/29 14:04:38;;;;;;;3.10;2.13;;;;;;;;;;5041221;28;20093;-84
2024/01/29 14:07:06;;;;;;;2.88;1.98;;;;;;;;;;5058706;28;20466;-83
2024/01/29 14:09:34;;;;;;;4.28;2.45;;;;;;;;;;5056586;28;20052;-84
2024/01/29 14:12:00;;;;;;;3.90;2.00;;;;;;;;;;5044862;28;20171;-83
2024/01/29 14:14:27;;;;;;;3.85;2.15;;;;;;;;;;5057847;28;20045;-83
2024/01/29 14:17:06;;;;;;;4.18;2.13;;;;;;;;;;5058101;28;20076;-83
2024/01/29 14:19:32;;;;;;;3.42;2.38;;;;;;;;;;5057927;28;20049;-84
2024/01/29 14:21:59;;;;;;;4.40;2.40;;;;;;;;;;5055255;28;20061;-83
2024/01/29 14:24:26;;;;;;;5.93;2.80;;;;;;;;;;5037735;28;20064;-83
2024/01/29 14:26:53;;;;;;;4.32;2.20;;;;;;;;;;5038947;28;20053;-83
2024/01/29 14:29:19;;;;;;;5.28;2.53;;;;;;;;;;5039540;28;20430;-83
2024/01/29 14:31:46;;;;;;;7.45;2.22;;;;;;;;;;5055401;28;20052;-83
2024/01/29 14:34:14;;;;;;;2.95;2.35;;;;;;;;;;5056031;28;20053;-83
2024/01/29 14:36:41;;;;;;;3.85;2.33;;;;;;;;;;5056583;28;20123;-83
2024/01/29 14:39:08;;;;;;;3.72;2.28;;;;;;;;;;5056052;28;20049;-84
2024/01/29 14:41:44;;;;;;;4.28;2.30;;;;;;;;;;5057985;28;20114;-83